Time;durP1;ratioP1;P1;durP2;ratioP2;P2;SDS_P1;SDS_P2;PMS_P1;PMS_P2;Temp;Humidity;BMP_temperature;BMP_pressure;BME280_temperature;BME280_humidity;BME280_pressure;Samples;Min_cycle;Max_cycle;Signal;HPM_P1;HPM_P2
2024/01/02 00:01:35;;;;;;;3.20;1.10;;;8.00;99.90;;;;;;5053801;28;20171;-51
2024/01/02 00:04:01;;;;;;;4.47;1.30;;;8.00;99.90;;;;;;5036614;28;20182;-51
2024/01/02 00:06:27;;;;;;;3.92;1.50;;;8.00;99.90;;;;;;5033553;28;20179;-51
2024/01/02 00:08:53;;;;;;;1.20;1.10;;;8.00;99.90;;;;;;5033582;28;20218;-52
2024/01/02 00:11:19;;;;;;;4.78;1.42;;;8.00;99.90;;;;;;5033518;28;20204;-50
2024/01/02 00:13:45;;;;;;;2.50;1.20;;;8.10;99.90;;;;;;5034032;28;20186;-51
2024/01/02 00:16:10;;;;;;;3.05;1.35;;;8.00;99.90;;;;;;5034574;28;20171;-53
2024/01/02 00:18:36;;;;;;;4.90;1.23;;;8.00;99.90;;;;;;5033412;28;20186;-50
2024/01/02 00:21:02;;;;;;;3.90;1.30;;;8.00;99.90;;;;;;5032495;28;20526;-50
2024/01/02 00:23:28;;;;;;;5.15;1.70;;;8.00;99.90;;;;;;5033109;28;20186;-49
2024/01/02 00:25:54;;;;;;;4.38;1.30;;;8.00;99.90;;;;;;5032825;28;20168;-49
2024/01/02 00:28:19;;;;;;;3.75;1.23;;;8.00;99.90;;;;;;5033023;28;20213;-49
2024/01/02 00:30:45;;;;;;;4.93;1.20;;;8.00;99.90;;;;;;5033601;28;20242;-51
2024/01/02 00:33:11;;;;;;;6.05;1.13;;;10.50;99.90;;;;;;5033773;28;20704;-48
2024/01/02 00:35:36;;;;;;;3.15;1.23;;;8.00;99.90;;;;;;5032842;28;20258;-47
2024/01/02 00:38:03;;;;;;;3.83;1.10;;;8.00;99.90;;;;;;5032789;28;20637;-48
2024/01/02 00:40:29;;;;;;;2.13;1.42;;;8.00;99.90;;;;;;5032957;28;20515;-48
2024/01/02 00:42:54;;;;;;;2.88;1.10;;;7.90;99.90;;;;;;5032894;28;20183;-48
2024/01/02 00:45:20;;;;;;;3.15;1.25;;;8.00;99.90;;;;;;5032941;28;20246;-49
2024/01/02 00:47:45;;;;;;;1.75;1.08;;;7.90;99.90;;;;;;5032747;28;20207;-49
2024/01/02 00:50:11;;;;;;;1.17;1.00;;;7.90;99.90;;;;;;5033484;28;20255;-49
2024/01/02 00:52:37;;;;;;;2.20;0.90;;;7.90;99.90;;;;;;5032723;28;20164;-50
2024/01/02 00:55:04;;;;;;;2.47;1.15;;;7.90;99.90;;;;;;5032604;28;20222;-49
2024/01/02 00:57:30;;;;;;;2.92;0.95;;;7.90;99.90;;;;;;5032678;28;20187;-50
2024/01/02 00:59:57;;;;;;;2.63;0.85;;;7.90;99.90;;;;;;5032650;28;20163;-50
2024/01/02 01:02:23;;;;;;;1.27;1.00;;;7.90;99.90;;;;;;5038028;28;20305;-51
2024/01/02 01:04:48;;;;;;;3.35;1.00;;;7.90;99.90;;;;;;5052099;28;20624;-50
2024/01/02 01:07:14;;;;;;;4.25;1.20;;;7.90;99.90;;;;;;5052816;28;20202;-49
2024/01/02 01:09:39;;;;;;;1.58;0.80;;;7.90;99.90;;;;;;5052244;28;20175;-49
2024/01/02 01:12:06;;;;;;;2.22;0.77;;;7.90;99.90;;;;;;5052237;28;20264;-50
2024/01/02 01:14:32;;;;;;;3.30;0.93;;;7.90;99.90;;;;;;5052455;28;20182;-50
2024/01/02 01:16:58;;;;;;;2.17;1.10;;;7.80;99.90;;;;;;5052417;28;20174;-50
2024/01/02 01:19:24;;;;;;;2.50;0.80;;;7.90;99.90;;;;;;5052173;28;20170;-50
2024/01/02 01:21:50;;;;;;;2.58;1.05;;;7.90;99.90;;;;;;5052038;28;20249;-51
2024/01/02 01:24:15;;;;;;;0.80;0.68;;;7.90;99.90;;;;;;5052204;28;20206;-51
2024/01/02 01:26:41;;;;;;;2.05;0.88;;;7.90;99.90;;;;;;5052326;28;20178;-49
2024/01/02 01:29:06;;;;;;;0.70;0.70;;;7.90;99.90;;;;;;5052218;28;20220;-50
2024/01/02 01:31:32;;;;;;;1.35;0.73;;;7.90;99.90;;;;;;5051851;28;20171;-51
2024/01/02 01:33:58;;;;;;;0.88;0.40;;;7.90;99.90;;;;;;5032752;28;20210;-50
2024/01/02 01:36:23;;;;;;;3.00;1.00;;;7.90;99.90;;;;;;5032088;28;20171;-51
2024/01/02 01:38:49;;;;;;;1.08;0.52;;;7.90;99.90;;;;;;5031834;28;20171;-51
2024/01/02 01:41:14;;;;;;;2.08;0.70;;;7.90;99.90;;;;;;5032314;28;20170;-51
2024/01/02 01:43:40;;;;;;;0.98;0.57;;;7.90;99.90;;;;;;5031843;28;20164;-51
2024/01/02 01:46:07;;;;;;;1.63;0.52;;;7.90;99.90;;;;;;5031778;28;20254;-52
2024/01/02 01:48:34;;;;;;;1.65;0.80;;;7.90;99.90;;;;;;5031672;28;20705;-51
2024/01/02 01:51:00;;;;;;;1.17;1.08;;;7.80;99.90;;;;;;5031721;28;20689;-51
2024/01/02 01:53:26;;;;;;;0.88;0.70;;;7.80;99.90;;;;;;5031690;28;20179;-50
2024/01/02 01:55:52;;;;;;;2.42;0.45;;;7.80;99.90;;;;;;5031557;28;20309;-50
2024/01/02 01:58:18;;;;;;;0.47;0.47;;;7.80;99.90;;;;;;5031531;28;20677;-50
2024/01/02 02:00:44;;;;;;;1.15;0.50;;;7.80;99.90;;;;;;5031996;28;20574;-51
2024/01/02 02:03:11;;;;;;;0.77;0.60;;;7.80;99.90;;;;;;5046011;28;20174;-50
2024/01/02 02:05:36;;;;;;;1.65;0.50;;;7.80;99.90;;;;;;5051079;28;20174;-51
2024/01/02 02:08:02;;;;;;;1.70;0.80;;;7.80;99.90;;;;;;5051281;28;20304;-51
2024/01/02 02:10:29;;;;;;;1.08;0.70;;;7.70;99.90;;;;;;5050125;28;20167;-50
2024/01/02 02:12:57;;;;;;;1.48;0.63;;;7.70;99.90;;;;;;5051324;28;20253;-50
2024/01/02 02:15:23;;;;;;;2.78;0.57;;;7.70;99.90;;;;;;5051328;28;20677;-49
2024/01/02 02:17:48;;;;;;;1.50;0.40;;;7.70;99.90;;;;;;5051381;28;20638;-49
2024/01/02 02:20:14;;;;;;;0.50;0.40;;;7.70;99.90;;;;;;5051718;28;20249;-50
2024/01/02 02:22:54;;;;;;;2.20;0.80;;;7.60;99.90;;;;;;5051576;28;20545;-50
2024/01/02 02:25:19;;;;;;;0.88;0.55;;;8.40;99.90;;;;;;5049405;28;20526;-50
2024/01/02 02:27:46;;;;;;;1.45;0.70;;;7.60;99.90;;;;;;5051582;28;20263;-51
2024/01/02 02:30:12;;;;;;;0.30;0.30;;;7.60;99.90;;;;;;5051537;28;20170;-51
2024/01/02 02:32:38;;;;;;;1.63;0.40;;;7.60;99.90;;;;;;5051341;28;20174;-50
2024/01/02 02:35:07;;;;;;;1.95;0.40;;;7.50;99.90;;;;;;5051044;28;20263;-49
2024/01/02 02:37:32;;;;;;;0.20;0.20;;;7.50;99.90;;;;;;5050986;28;20170;-50
2024/01/02 02:39:58;;;;;;;0.28;0.28;;;7.50;99.90;;;;;;5049807;28;20173;-50
2024/01/02 02:42:23;;;;;;;1.55;0.47;;;7.50;99.90;;;;;;5049844;28;20569;-50
2024/01/02 02:44:49;;;;;;;0.22;0.22;;;7.40;99.90;;;;;;5053733;28;20571;-50
2024/01/02 02:47:15;;;;;;;1.83;0.30;;;7.40;99.90;;;;;;5055409;28;20232;-51
2024/01/02 02:49:41;;;;;;;1.00;0.30;;;7.40;99.90;;;;;;5055430;28;20174;-50
2024/01/02 02:52:07;;;;;;;0.52;0.20;;;7.40;99.90;;;;;;5055192;28;20192;-51
2024/01/02 02:54:33;;;;;;;0.22;0.17;;;7.40;99.90;;;;;;5054749;28;20166;-50
2024/01/02 02:56:58;;;;;;;0.52;0.17;;;7.30;99.90;;;;;;5035935;28;20217;-50
2024/01/02 02:59:24;;;;;;;0.00;0.00;;;7.40;99.90;;;;;;5034840;28;20186;-50
2024/01/02 03:01:50;;;;;;;0.13;0.13;;;7.30;99.90;;;;;;5034859;28;20171;-50
2024/01/02 03:04:15;;;;;;;0.20;0.20;;;7.40;99.90;;;;;;5035020;28;20167;-50
2024/01/02 03:06:41;;;;;;;0.20;0.10;;;7.30;99.90;;;;;;5035049;28;20167;-52
2024/01/02 03:09:06;;;;;;;1.38;0.22;;;7.30;99.90;;;;;;5034639;28;20164;-50
2024/01/02 03:11:32;;;;;;;0.20;0.20;;;7.30;99.90;;;;;;5034611;28;20171;-50
2024/01/02 03:13:57;;;;;;;1.98;0.45;;;7.40;99.90;;;;;;5034528;28;20183;-55
2024/01/02 03:16:24;;;;;;;0.45;0.25;;;7.40;99.90;;;;;;5034753;28;20321;-50
2024/01/02 03:18:50;;;;;;;1.48;0.30;;;7.30;99.90;;;;;;5034473;28;20551;-50
2024/01/02 03:21:15;;;;;;;0.32;0.30;;;7.40;99.90;;;;;;5034680;28;20172;-52
2024/01/02 03:23:41;;;;;;;0.15;0.10;;;7.40;99.90;;;;;;5034940;28;20646;-51
2024/01/02 03:26:08;;;;;;;0.05;0.05;;;7.40;99.90;;;;;;5045606;28;20178;-50
2024/01/02 03:28:34;;;;;;;0.80;0.45;;;7.40;99.90;;;;;;5053846;28;20198;-50
2024/01/02 03:31:00;;;;;;;0.40;0.40;;;7.40;99.90;;;;;;5054187;28;20169;-50
2024/01/02 03:33:27;;;;;;;0.98;0.55;;;7.40;99.90;;;;;;5054394;28;20178;-50
2024/01/02 03:35:53;;;;;;;0.22;0.10;;;7.40;99.90;;;;;;5054150;28;20250;-50
2024/01/02 03:38:18;;;;;;;1.90;0.10;;;7.40;99.90;;;;;;5054087;28;20245;-51
2024/01/02 03:40:44;;;;;;;0.38;0.32;;;7.40;99.90;;;;;;5054643;28;20197;-52
2024/01/02 03:43:09;;;;;;;0.35;0.28;;;7.50;99.90;;;;;;5053985;28;20171;-51
2024/01/02 03:45:35;;;;;;;0.43;0.25;;;7.50;99.90;;;;;;5053919;28;20172;-50
2024/01/02 03:48:00;;;;;;;0.90;0.22;;;7.50;99.90;;;;;;5053771;28;20229;-52
2024/01/02 03:50:26;;;;;;;1.95;0.30;;;7.40;99.90;;;;;;5053859;28;20163;-51
2024/01/02 03:52:52;;;;;;;0.25;0.25;;;7.50;99.90;;;;;;5053804;28;20175;-52
2024/01/02 03:55:17;;;;;;;2.60;0.45;;;7.60;99.90;;;;;;5051566;28;20246;-50
2024/01/02 03:57:43;;;;;;;2.03;0.30;;;7.60;99.90;;;;;;5054121;28;20643;-50
2024/01/02 04:00:09;;;;;;;0.10;0.10;;;7.60;99.90;;;;;;5053654;28;20614;-51
2024/01/02 04:02:35;;;;;;;0.40;0.40;;;7.60;99.90;;;;;;5053606;28;20170;-51
2024/01/02 04:05:03;;;;;;;0.30;0.30;;;7.70;99.90;;;;;;5053576;28;20170;-52
2024/01/02 04:07:28;;;;;;;1.08;0.40;;;7.70;99.90;;;;;;5053690;28;20214;-52
2024/01/02 04:09:54;;;;;;;0.32;0.32;;;7.70;99.90;;;;;;5053541;28;20521;-51
2024/01/02 04:12:20;;;;;;;0.45;0.43;;;7.80;99.90;;;;;;5053495;28;20228;-51
2024/01/02 04:14:45;;;;;;;0.95;0.40;;;7.80;99.90;;;;;;5053765;28;20217;-49
2024/01/02 04:17:11;;;;;;;0.40;0.40;;;7.80;99.90;;;;;;5053819;28;20672;-51
2024/01/02 04:19:36;;;;;;;1.40;0.55;;;7.80;99.90;;;;;;5053273;28;20630;-54
2024/01/02 04:22:02;;;;;;;2.22;0.40;;;7.90;99.90;;;;;;5053343;28;20172;-50
2024/01/02 04:24:27;;;;;;;0.30;0.30;;;7.90;99.90;;;;;;5052605;28;20175;-51
2024/01/02 04:26:53;;;;;;;1.17;0.60;;;7.80;99.90;;;;;;5033197;28;20251;-52
2024/01/02 04:29:18;;;;;;;0.17;0.10;;;7.90;99.90;;;;;;5033162;28;20203;-50
2024/01/02 04:31:44;;;;;;;0.57;0.45;;;7.90;99.90;;;;;;5032451;28;20168;-50
2024/01/02 04:34:10;;;;;;;1.73;0.93;;;7.90;99.90;;;;;;5033540;28;20167;-50
2024/01/02 04:36:35;;;;;;;2.40;0.68;;;7.90;99.90;;;;;;5033057;28;20167;-50
2024/01/02 04:39:03;;;;;;;0.75;0.65;;;8.00;99.90;;;;;;5033057;28;20175;-50
2024/01/02 04:41:28;;;;;;;0.95;0.50;;;8.00;99.90;;;;;;5031714;28;20645;-49
2024/01/02 04:43:54;;;;;;;1.20;0.70;;;8.00;99.90;;;;;;5032710;28;20204;-51
2024/01/02 04:46:19;;;;;;;0.85;0.60;;;8.10;99.90;;;;;;5032763;28;20174;-50
2024/01/02 04:48:45;;;;;;;1.33;0.75;;;8.10;99.90;;;;;;5032717;28;20203;-49
2024/01/02 04:51:10;;;;;;;2.58;0.75;;;8.10;99.90;;;;;;5033253;28;20249;-50
2024/01/02 04:53:36;;;;;;;0.80;0.40;;;8.10;99.90;;;;;;5032794;28;20175;-51
2024/01/02 04:56:02;;;;;;;0.40;0.40;;;8.20;99.90;;;;;;5048312;28;20210;-51
2024/01/02 04:58:27;;;;;;;1.10;0.70;;;8.10;99.90;;;;;;5032693;28;20178;-52
2024/01/02 05:00:53;;;;;;;0.90;0.52;;;8.20;99.90;;;;;;5032574;28;20215;-52
2024/01/02 05:03:18;;;;;;;0.40;0.40;;;8.20;99.90;;;;;;5032473;28;20167;-51
2024/01/02 05:05:44;;;;;;;0.28;0.28;;;8.30;99.90;;;;;;5032953;28;20226;-52
2024/01/02 05:08:10;;;;;;;0.60;0.45;;;8.40;99.90;;;;;;5032650;28;20215;-50
2024/01/02 05:10:36;;;;;;;1.75;0.70;;;8.40;99.90;;;;;;5032378;28;20222;-51
2024/01/02 05:13:02;;;;;;;0.98;0.88;;;8.50;99.90;;;;;;5032537;28;20199;-52
2024/01/02 05:15:28;;;;;;;4.90;1.50;;;8.70;99.90;;;;;;5032272;28;20206;-50
2024/01/02 05:17:53;;;;;;;1.23;0.90;;;8.70;99.90;;;;;;5032318;28;20557;-50
2024/01/02 05:20:19;;;;;;;1.00;0.50;;;8.80;99.90;;;;;;5032222;28;20582;-50
2024/01/02 05:22:44;;;;;;;0.38;0.38;;;8.90;99.90;;;;;;5032708;28;20635;-50
2024/01/02 05:25:10;;;;;;;0.20;0.20;;;9.20;99.90;;;;;;5040580;28;20228;-51
2024/01/02 05:27:35;;;;;;;0.40;0.40;;;9.30;99.90;;;;;;5051970;28;20230;-51
2024/01/02 05:30:01;;;;;;;0.63;0.20;;;9.50;99.90;;;;;;5052054;28;20622;-50
2024/01/02 05:32:27;;;;;;;0.10;0.10;;;9.60;99.90;;;;;;5052097;28;20194;-51
2024/01/02 05:34:53;;;;;;;0.47;0.47;;;9.70;99.90;;;;;;5051980;28;20565;-50
2024/01/02 05:37:18;;;;;;;1.45;0.50;;;9.70;99.90;;;;;;5051859;28;20527;-50
2024/01/02 05:39:44;;;;;;;0.05;0.05;;;9.80;99.90;;;;;;5052589;28;20627;-49
2024/01/02 05:42:10;;;;;;;0.10;0.10;;;11.70;99.90;;;;;;5052134;28;20177;-49
2024/01/02 05:44:35;;;;;;;0.03;0.00;;;9.90;99.90;;;;;;5051810;28;20175;-50
2024/01/02 05:47:01;;;;;;;0.00;0.00;;;10.10;99.90;;;;;;5051654;28;20166;-50
2024/01/02 05:49:26;;;;;;;0.00;0.00;;;10.10;99.90;;;;;;5051805;28;20174;-51
2024/01/02 05:51:52;;;;;;;0.00;0.00;;;10.20;99.90;;;;;;5051180;28;20167;-51
2024/01/02 05:54:17;;;;;;;0.05;0.05;;;10.20;99.90;;;;;;5046772;28;20181;-49
2024/01/02 05:56:43;;;;;;;0.13;0.13;;;10.30;99.90;;;;;;5031967;28;20571;-51
2024/01/02 05:59:09;;;;;;;0.00;0.00;;;10.30;99.90;;;;;;5031622;28;20602;-49
2024/01/02 06:01:34;;;;;;;0.17;0.13;;;10.40;99.90;;;;;;5031528;28;20170;-50
2024/01/02 06:04:00;;;;;;;0.15;0.15;;;10.30;99.90;;;;;;5031523;28;20533;-49
2024/01/02 06:06:25;;;;;;;0.03;0.03;;;10.30;99.90;;;;;;5031473;28;20250;-52
2024/01/02 06:08:51;;;;;;;0.08;0.08;;;10.40;99.90;;;;;;5031371;28;20238;-52
2024/01/02 06:11:17;;;;;;;0.15;0.15;;;10.50;99.90;;;;;;5031456;28;20170;-51
2024/01/02 06:13:42;;;;;;;0.20;0.00;;;10.50;99.90;;;;;;5031796;28;20167;-50
2024/01/02 06:16:11;;;;;;;0.10;0.10;;;10.60;99.90;;;;;;5031352;28;20182;-50
2024/01/02 06:18:37;;;;;;;0.00;0.00;;;10.60;99.90;;;;;;5030617;28;20174;-50
2024/01/02 06:21:04;;;;;;;0.00;0.00;;;10.60;99.90;;;;;;5031618;28;20174;-51
2024/01/02 06:23:31;;;;;;;0.15;0.13;;;10.60;99.90;;;;;;5031362;28;20167;-52
2024/01/02 06:25:57;;;;;;;0.70;0.10;;;10.60;99.90;;;;;;5048725;28;20166;-51
2024/01/02 06:28:23;;;;;;;0.00;0.00;;;10.60;99.90;;;;;;5051350;28;20210;-51
2024/01/02 06:30:49;;;;;;;0.10;0.10;;;10.60;99.90;;;;;;5051175;28;20631;-51
2024/01/02 06:33:14;;;;;;;0.10;0.03;;;10.60;99.90;;;;;;5051145;28;20171;-50
2024/01/02 06:35:40;;;;;;;0.00;0.00;;;10.70;99.90;;;;;;5051547;28;20162;-49
2024/01/02 06:38:06;;;;;;;0.17;0.10;;;10.70;99.90;;;;;;5050982;28;20206;-51
2024/01/02 06:40:31;;;;;;;0.25;0.25;;;10.70;99.90;;;;;;5050966;28;20272;-51
2024/01/02 06:42:57;;;;;;;0.00;0.00;;;10.70;99.90;;;;;;5051026;28;20250;-52
2024/01/02 06:45:22;;;;;;;0.00;0.00;;;10.80;99.90;;;;;;5051069;28;20265;-51
2024/01/02 06:47:48;;;;;;;0.00;0.00;;;10.80;99.90;;;;;;5050593;28;20210;-48
2024/01/02 06:50:14;;;;;;;1.35;0.15;;;10.80;99.90;;;;;;5051217;28;20677;-51
2024/01/02 06:52:39;;;;;;;0.10;0.00;;;10.80;99.90;;;;;;5051355;28;20189;-50
2024/01/02 06:55:05;;;;;;;0.00;0.00;;;10.80;99.90;;;;;;5036820;28;20686;-52
2024/01/02 06:57:32;;;;;;;0.00;0.00;;;10.90;99.90;;;;;;5030821;28;20258;-49
2024/01/02 06:59:58;;;;;;;0.00;0.00;;;10.90;99.90;;;;;;5030918;28;20655;-53
2024/01/02 07:02:23;;;;;;;0.00;0.00;;;10.90;99.90;;;;;;5031189;28;20167;-52
2024/01/02 07:04:49;;;;;;;0.00;0.00;;;11.00;99.90;;;;;;5030900;28;20528;-49
2024/01/02 07:07:14;;;;;;;0.00;0.00;;;10.90;99.90;;;;;;5030819;28;20598;-51
2024/01/02 07:09:40;;;;;;;0.00;0.00;;;10.90;99.90;;;;;;5031304;28;20245;-54
2024/01/02 07:12:06;;;;;;;0.10;0.10;;;11.00;99.90;;;;;;5029667;28;20681;-56
2024/01/02 07:14:33;;;;;;;0.00;0.00;;;10.90;99.90;;;;;;5030848;28;20206;-57
2024/01/02 07:16:59;;;;;;;0.00;0.00;;;11.00;99.90;;;;;;5031140;28;20213;-52
2024/01/02 07:19:25;;;;;;;0.00;0.00;;;11.00;99.90;;;;;;5030782;28;20175;-56
2024/01/02 07:21:50;;;;;;;0.00;0.00;;;11.00;99.90;;;;;;5030781;28;20168;-56
2024/01/02 07:24:16;;;;;;;0.80;0.28;;;11.10;99.90;;;;;;5030651;28;20168;-52
2024/01/02 07:26:42;;;;;;;0.10;0.10;;;11.10;99.90;;;;;;5031195;28;20222;-55
2024/01/02 07:29:08;;;;;;;0.10;0.10;;;11.10;99.90;;;;;;5030517;28;20219;-52
2024/01/02 07:31:35;;;;;;;0.00;0.00;;;11.10;99.90;;;;;;5034273;28;20191;-53
2024/01/02 07:34:01;;;;;;;0.45;0.10;;;11.10;99.90;;;;;;5034476;28;20182;-53
2024/01/02 07:36:27;;;;;;;0.57;0.10;;;11.10;99.90;;;;;;5034464;28;20197;-52
2024/01/02 07:38:53;;;;;;;0.15;0.15;;;11.20;99.90;;;;;;5034240;28;20171;-52
2024/01/02 07:41:19;;;;;;;0.10;0.10;;;11.10;99.90;;;;;;5034310;28;20645;-49
2024/01/02 07:43:44;;;;;;;0.08;0.08;;;11.20;99.90;;;;;;5033582;28;20164;-50
2024/01/02 07:46:10;;;;;;;0.90;0.20;;;11.20;99.90;;;;;;5041602;28;20585;-52
2024/01/02 07:48:35;;;;;;;0.95;0.17;;;11.20;99.90;;;;;;5053289;28;20608;-49
2024/01/02 07:51:01;;;;;;;0.30;0.30;;;11.20;99.90;;;;;;5053996;28;20236;-51
2024/01/02 07:53:26;;;;;;;0.93;0.08;;;11.20;99.90;;;;;;5053634;28;20167;-49
2024/01/02 07:55:52;;;;;;;0.10;0.10;;;11.20;99.90;;;;;;5053598;28;20226;-50
2024/01/02 07:58:18;;;;;;;0.20;0.20;;;11.20;99.90;;;;;;5053984;28;20175;-51
2024/01/02 08:00:43;;;;;;;0.00;0.00;;;11.20;99.90;;;;;;5054228;28;20163;-51
2024/01/02 08:03:09;;;;;;;0.30;0.30;;;11.20;99.90;;;;;;5054155;28;20209;-50
2024/01/02 08:05:35;;;;;;;0.17;0.17;;;11.20;99.90;;;;;;5053849;28;20181;-49
2024/01/02 08:08:02;;;;;;;0.20;0.20;;;11.20;99.90;;;;;;5052358;28;20731;-49
2024/01/02 08:10:28;;;;;;;3.40;0.20;;;11.20;99.90;;;;;;5053401;28;20174;-49
2024/01/02 08:12:53;;;;;;;0.50;0.20;;;11.30;99.90;;;;;;5053452;28;20534;-49
2024/01/02 08:15:19;;;;;;;0.65;0.20;;;11.30;99.90;;;;;;5052945;28;20178;-51
2024/01/02 08:17:45;;;;;;;0.22;0.22;;;11.30;99.90;;;;;;5033421;28;20581;-50
2024/01/02 08:20:11;;;;;;;0.17;0.10;;;11.30;99.90;;;;;;5032607;28;20174;-49
2024/01/02 08:22:36;;;;;;;0.47;0.47;;;11.30;99.90;;;;;;5031816;28;20536;-49
2024/01/02 08:25:03;;;;;;;0.30;0.28;;;11.30;99.90;;;;;;5033129;28;20167;-50
2024/01/02 08:27:29;;;;;;;0.22;0.22;;;11.30;99.90;;;;;;5031775;28;20237;-48
2024/01/02 08:29:54;;;;;;;0.43;0.38;;;11.30;99.90;;;;;;5033081;28;20569;-47
2024/01/02 08:32:21;;;;;;;0.40;0.40;;;11.30;99.90;;;;;;5033029;28;20178;-47
2024/01/02 08:34:47;;;;;;;0.60;0.60;;;11.30;99.90;;;;;;5032965;28;20651;-47
2024/01/02 08:37:13;;;;;;;0.20;0.20;;;11.30;99.90;;;;;;5033558;28;20174;-53
2024/01/02 08:39:38;;;;;;;1.20;0.20;;;11.20;99.90;;;;;;5032648;28;20570;-47
2024/01/02 08:42:04;;;;;;;0.30;0.30;;;11.30;99.90;;;;;;5032486;28;20183;-47
2024/01/02 08:44:30;;;;;;;1.25;0.20;;;11.30;99.90;;;;;;5032870;28;20175;-47
2024/01/02 08:46:56;;;;;;;0.10;0.10;;;11.30;99.90;;;;;;5049017;28;20171;-47
2024/01/02 08:49:21;;;;;;;0.20;0.20;;;11.30;99.90;;;;;;5052565;28;20220;-47
2024/01/02 08:51:47;;;;;;;0.40;0.32;;;11.30;99.90;;;;;;5052367;28;20523;-48
2024/01/02 08:54:12;;;;;;;0.15;0.15;;;11.30;99.90;;;;;;5052581;28;20167;-47
2024/01/02 08:56:38;;;;;;;0.20;0.20;;;11.30;99.90;;;;;;5052264;28;20690;-47
2024/01/02 08:59:03;;;;;;;0.13;0.10;;;11.30;99.90;;;;;;5052569;28;20181;-47
2024/01/02 09:01:29;;;;;;;0.60;0.20;;;11.30;99.90;;;;;;5052389;28;20175;-47
2024/01/02 09:03:54;;;;;;;1.73;0.55;;;11.40;99.90;;;;;;5052395;28;20181;-48
2024/01/02 09:06:20;;;;;;;3.75;0.30;;;11.40;99.90;;;;;;5052397;28;20242;-48
2024/01/02 09:08:46;;;;;;;0.17;0.17;;;11.50;99.90;;;;;;5052206;28;20242;-49
2024/01/02 09:11:12;;;;;;;1.23;0.20;;;11.50;99.90;;;;;;5052835;28;20178;-47
2024/01/02 09:13:38;;;;;;;0.20;0.20;;;11.50;99.90;;;;;;5052281;28;20175;-48
2024/01/02 09:16:04;;;;;;;0.70;0.30;;;11.50;99.90;;;;;;5042713;28;20175;-52
2024/01/02 09:18:30;;;;;;;0.15;0.10;;;11.50;99.90;;;;;;5032237;28;20168;-57
2024/01/02 09:20:57;;;;;;;0.08;0.08;;;11.50;99.90;;;;;;5032258;28;20266;-55
2024/01/02 09:23:22;;;;;;;0.20;0.20;;;11.50;99.90;;;;;;5032218;28;20249;-51
2024/01/02 09:25:50;;;;;;;1.33;0.40;;;11.50;99.90;;;;;;5032254;28;20214;-56
2024/01/02 09:28:17;;;;;;;0.00;0.00;;;11.50;99.90;;;;;;5032040;28;20218;-53
2024/01/02 09:30:43;;;;;;;0.28;0.28;;;11.50;99.90;;;;;;5032173;28;20167;-56
2024/01/02 09:33:09;;;;;;;0.55;0.28;;;12.10;99.90;;;;;;5032845;28;20174;-49
2024/01/02 09:35:36;;;;;;;0.10;0.10;;;11.50;99.90;;;;;;5032219;28;20167;-51
2024/01/02 09:38:04;;;;;;;0.17;0.17;;;11.50;99.90;;;;;;5032027;28;20239;-49
2024/01/02 09:40:48;;;;;;;0.30;0.30;;;11.50;99.90;;;;;;5032137;28;20225;-47
2024/01/02 09:43:36;;;;;;;0.40;0.35;;;11.60;99.90;;;;;;5031876;28;20177;-48
2024/01/02 09:46:21;;;;;;;0.30;0.30;;;11.60;99.90;;;;;;5043236;28;20166;-49
2024/01/02 09:49:02;;;;;;;0.65;0.40;;;11.60;99.90;;;;;;5051679;28;20210;-49
2024/01/02 09:52:04;;;;;;;0.60;0.43;;;11.60;99.90;;;;;;5051269;28;20202;-49
2024/01/02 09:55:07;;;;;;;0.30;0.25;;;11.70;99.90;;;;;;5050517;28;20170;-49
2024/01/02 09:57:40;;;;;;;0.10;0.10;;;11.70;99.90;;;;;;5051261;28;20182;-49
2024/01/02 10:00:11;;;;;;;3.53;0.38;;;11.80;99.90;;;;;;5051407;28;20174;-48
2024/01/02 10:03:31;;;;;;;0.10;0.10;;;11.80;99.90;;;;;;5048528;28;20316;-47
2024/01/02 10:06:34;;;;;;;0.10;0.10;;;11.80;99.90;;;;;;5026227;28;20195;-49
2024/01/02 10:09:40;;;;;;;0.00;0.00;;;11.80;99.90;;;;;;5027399;28;20210;-52
2024/01/02 10:12:36;;;;;;;0.10;0.10;;;11.80;99.90;;;;;;5049501;28;20171;-54
2024/01/02 10:15:44;;;;;;;0.93;0.08;;;11.90;99.90;;;;;;5045631;28;20828;-50
2024/01/02 10:18:28;;;;;;;0.17;0.17;;;11.80;99.90;;;;;;5029297;28;20187;-48
2024/01/02 10:21:28;;;;;;;1.45;0.32;;;11.90;99.90;;;;;;5028613;28;20174;-48
2024/01/02 10:24:03;;;;;;;0.22;0.22;;;11.90;99.90;;;;;;5028816;28;20174;-50
2024/01/02 10:26:32;;;;;;;0.28;0.28;;;11.90;99.90;;;;;;5028520;28;20238;-48
2024/01/02 10:29:05;;;;;;;0.20;0.20;;;11.90;99.90;;;;;;5028695;28;20207;-49
2024/01/02 10:31:47;;;;;;;0.30;0.30;;;11.90;99.90;;;;;;5028625;28;20179;-48
2024/01/02 10:34:27;;;;;;;0.63;0.30;;;11.90;99.90;;;;;;5029255;28;20171;-48
2024/01/02 10:36:57;;;;;;;0.20;0.20;;;11.90;99.90;;;;;;5028341;28;20665;-46
2024/01/02 10:39:33;;;;;;;0.10;0.10;;;11.90;99.90;;;;;;5028516;28;20168;-46
2024/01/02 10:42:28;;;;;;;1.45;0.13;;;11.90;99.90;;;;;;5028363;28;20274;-46
2024/01/02 10:45:09;;;;;;;0.32;0.32;;;11.90;99.90;;;;;;5028472;28;20168;-47
2024/01/02 10:48:04;;;;;;;0.20;0.20;;;11.90;99.90;;;;;;5028495;28;20202;-49
2024/01/02 10:50:48;;;;;;;0.10;0.10;;;11.90;99.90;;;;;;5028622;28;20525;-48
2024/01/02 10:53:37;;;;;;;0.80;0.45;;;11.90;99.90;;;;;;5028313;28;20552;-51
2024/01/02 10:56:13;;;;;;;0.57;0.25;;;11.80;99.90;;;;;;5027680;28;20210;-54
2024/01/02 10:59:05;;;;;;;0.55;0.40;;;11.80;99.90;;;;;;5029087;28;20167;-51
2024/01/02 11:01:36;;;;;;;0.52;0.52;;;11.70;99.90;;;;;;5029189;28;20178;-51
2024/01/02 11:04:36;;;;;;;1.45;0.50;;;11.70;99.90;;;;;;5028988;28;20163;-50
2024/01/02 11:07:06;;;;;;;1.67;0.38;;;11.60;99.90;;;;;;5033063;28;20171;-51
2024/01/02 11:09:49;;;;;;;0.98;0.70;;;11.50;99.90;;;;;;5033002;28;20548;-51
2024/01/02 11:12:16;;;;;;;2.70;0.70;;;11.50;99.90;;;;;;5031715;28;20167;-49
2024/01/02 11:14:43;;;;;;;0.70;0.70;;;11.50;99.90;;;;;;5036261;28;20184;-50
2024/01/02 11:17:14;;;;;;;3.13;1.50;;;11.40;99.90;;;;;;5053256;28;20201;-51
2024/01/02 11:19:47;;;;;;;2.92;1.80;;;11.40;99.90;;;;;;5053422;28;20206;-51
2024/01/02 11:22:21;;;;;;;1.63;1.52;;;11.40;99.90;;;;;;5053128;28;20170;-50
2024/01/02 11:24:56;;;;;;;3.70;2.15;;;11.40;99.90;;;;;;5052658;28;20217;-51
2024/01/02 11:27:23;;;;;;;4.20;1.95;;;11.40;99.90;;;;;;5051737;28;20197;-49
2024/01/02 11:29:51;;;;;;;2.70;1.90;;;11.40;99.90;;;;;;5052251;28;20179;-51
2024/01/02 11:32:21;;;;;;;3.55;2.78;;;11.30;99.90;;;;;;5052145;28;20198;-49
2024/01/02 11:35:00;;;;;;;2.22;1.25;;;11.30;99.90;;;;;;5052231;28;20162;-45
2024/01/02 11:37:36;;;;;;;3.78;2.13;;;11.30;99.90;;;;;;5052467;28;20232;-45
2024/01/02 11:40:22;;;;;;;2.67;2.47;;;11.30;99.90;;;;;;5052442;28;20181;-54
2024/01/02 11:43:24;;;;;;;1.23;1.13;;;11.30;99.90;;;;;;5052553;28;20167;-46
2024/01/02 11:45:57;;;;;;;1.65;1.20;;;11.20;99.90;;;;;;5036361;28;20186;-47
2024/01/02 11:48:59;;;;;;;3.30;1.38;;;11.20;99.90;;;;;;5032519;28;20218;-46
2024/01/02 11:51:28;;;;;;;2.88;1.30;;;11.20;99.90;;;;;;5032481;28;20167;-54
2024/01/02 11:54:06;;;;;;;2.72;1.63;;;11.20;99.90;;;;;;5032450;28;20184;-45
2024/01/02 11:56:33;;;;;;;1.88;1.15;;;11.10;99.90;;;;;;5031929;28;20812;-47
2024/01/02 11:59:05;;;;;;;3.75;1.08;;;11.00;99.90;;;;;;5032320;28;20179;-44
2024/01/02 12:01:49;;;;;;;0.85;0.70;;;11.00;99.90;;;;;;5032286;28;20167;-54
2024/01/02 12:04:53;;;;;;;1.05;0.75;;;10.90;99.90;;;;;;5032183;28;20171;-51
2024/01/02 12:07:30;;;;;;;1.73;0.90;;;10.90;99.90;;;;;;5031868;28;20627;-51
2024/01/02 12:09:57;;;;;;;3.42;1.10;;;10.90;99.90;;;;;;5032171;28;20230;-52
2024/01/02 12:12:48;;;;;;;1.00;0.82;;;10.80;99.90;;;;;;5032029;28;20175;-51
2024/01/02 12:15:44;;;;;;;3.28;1.17;;;10.80;99.90;;;;;;5041591;28;20196;-53
2024/01/02 12:18:12;;;;;;;3.78;1.40;;;10.80;99.90;;;;;;5051133;28;20253;-51
2024/01/02 12:21:00;;;;;;;0.80;0.50;;;10.80;99.90;;;;;;5051503;28;20217;-53
2024/01/02 12:23:26;;;;;;;2.47;1.35;;;10.70;99.90;;;;;;5051791;28;20587;-50
2024/01/02 12:26:04;;;;;;;2.42;0.95;;;10.70;99.90;;;;;;5051405;28;20197;-54
2024/01/02 12:28:32;;;;;;;3.28;1.40;;;10.70;99.90;;;;;;5051387;28;20206;-50
2024/01/02 12:31:36;;;;;;;1.00;0.77;;;10.70;99.90;;;;;;5051535;28;20171;-48
2024/01/02 12:34:14;;;;;;;3.03;1.58;;;10.60;99.90;;;;;;5051115;28;20228;-48
2024/01/02 12:36:46;;;;;;;2.30;1.38;;;10.60;99.90;;;;;;5051721;28;20170;-54
2024/01/02 12:39:15;;;;;;;5.22;2.58;;;10.60;99.90;;;;;;5051372;28;20515;-54
2024/01/02 12:41:51;;;;;;;58.95;47.65;;;10.60;99.90;;;;;;5051615;28;20179;-54
2024/01/02 12:44:18;;;;;;;3.97;1.98;;;10.60;99.90;;;;;;5045604;28;20229;-55
2024/01/02 12:46:51;;;;;;;1.45;1.35;;;10.50;99.90;;;;;;5031631;28;20191;-53
2024/01/02 12:49:28;;;;;;;3.05;2.78;;;10.50;99.90;;;;;;5030762;28;20210;-48
2024/01/02 12:52:02;;;;;;;2.85;2.40;;;10.50;99.90;;;;;;5030979;28;20623;-50
2024/01/02 12:54:29;;;;;;;4.72;3.67;;;10.50;99.90;;;;;;5030720;28;20180;-51
2024/01/02 12:57:01;;;;;;;4.43;3.10;;;10.50;99.90;;;;;;5030968;28;20712;-57
2024/01/02 12:59:28;;;;;;;2.63;1.88;;;10.50;99.90;;;;;;5030965;28;20264;-46
2024/01/02 13:01:54;;;;;;;2.80;2.00;;;10.40;99.90;;;;;;5031166;28;20179;-49